Weather reports worldwide

Advertisment
Cadiz, Spain (8452): temperature & dewpoint: 10.01.2018 08:00:00 - 16.01.2018 08:00:00 (CET)Cadiz, Spain (8452): wind speed & gusts: 10.01.2018 08:00:00 - 16.01.2018 08:00:00 (CET)Cadiz, Spain (8452): wind direction: 10.01.2018 08:00:00 - 16.01.2018 08:00:00 (CET)Cadiz, Spain (8452): reduced air pressure: 10.01.2018 08:00:00 - 16.01.2018 08:00:00 (CET)Cadiz, Spain (8452): precipitation: 10.01.2018 08:00:00 - 16.01.2018 08:00:00 (CET)
Date & Time tt [°C] td [°C] ff [km/h] ff [kn] fx [km/h] fx [kn] dd ppp [hPa] rr [mm]
16.01.2018 08:00:00 7,0 5,0 7 4 14 7 NNW 1030,5 0,0
16.01.2018 07:00:00 7,1 4,8 10 5 14 8 NNE 1030,4 -
16.01.2018 06:00:00 7,5 5,5 8 4 12 6 NNE 1030,1 0,0
16.01.2018 05:00:00 7,7 5,5 7 4 11 6 N 1030,3 0,0
16.01.2018 04:00:00 8,2 6,1 6 3 14 8 N 1030,5 0,0
16.01.2018 03:00:00 8,9 6,7 6 3 11 6 N 1030,5 0,0
16.01.2018 02:00:00 8,6 6,4 9 5 12 7 NNE 1030,4 0,0
16.01.2018 01:00:00 9,0 6,1 7 4 9 5 N 1030,8 -
16.01.2018 00:00:00 9,6 5,6 5 3 10 5 NNW 1030,5 0,0
15.01.2018 23:00:00 10,0 5,5 5 3 12 6 N 1030,5 0,0
15.01.2018 22:00:00 10,9 5,0 6 3 19 11 NE 1030,0 0,0
15.01.2018 21:00:00 11,2 5,3 14 8 21 11 NE 1029,5 0,0
15.01.2018 20:00:00 11,2 5,8 12 7 21 11 NNE 1028,7 0,0
15.01.2018 19:00:00 12,0 5,8 15 8 24 13 N 1027,7 -
15.01.2018 18:00:00 12,7 5,3 18 10 24 13 NNE 1026,9 0,0
15.01.2018 17:00:00 13,1 5,9 16 9 53 29 NNE 1026,5 0,0
15.01.2018 16:00:00 13,3 5,0 15 8 27 15 NNE 1026,1 0,0
15.01.2018 15:00:00 13,0 5,5 19 10 27 14 NE 1025,6 0,0
15.01.2018 14:00:00 11,6 5,5 21 11 31 17 NNE 1026,0 0,0
15.01.2018 13:00:00 11,1 5,1 21 11 34 18 NNE 1026,5 -
15.01.2018 12:00:00 10,1 5,1 25 14 34 19 N 1026,5 0,0
15.01.2018 11:00:00 9,4 5,1 23 12 33 18 N 1026,1 0,0
15.01.2018 10:00:00 7,4 4,6 14 8 29 16 NNE 1025,2 0,0
15.01.2018 09:00:00 6,7 5,1 22 12 38 20 N 1024,5 0,0
15.01.2018 08:00:00 7,5 5,5 23 13 31 17 N 1023,7 0,0
15.01.2018 07:00:00 8,0 5,5 21 12 28 15 N 1023,6 -
15.01.2018 06:00:00 8,2 5,6 16 9 23 13 N 1023,0 0,0
15.01.2018 05:00:00 8,0 6,2 12 7 17 9 N 1022,9 0,0
15.01.2018 04:00:00 8,4 6,4 14 8 17 9 N 1022,8 0,0
15.01.2018 03:00:00 8,2 5,6 9 5 14 8 NNE 1022,5 0,0
15.01.2018 02:00:00 8,8 5,5 12 6 15 8 NNE 1022,6 0,0
15.01.2018 01:00:00 10,2 5,1 11 6 20 11 N 1022,8 -
15.01.2018 00:00:00 10,7 5,3 13 7 19 11 N 1022,8 0,0
14.01.2018 23:00:00 11,3 5,5 16 9 23 12 N 1022,3 0,0
14.01.2018 22:00:00 11,7 5,3 14 8 24 13 NNW 1021,9 0,0
14.01.2018 21:00:00 12,3 5,9 16 8 24 13 NNW 1021,5 0,0
14.01.2018 20:00:00 12,6 4,8 16 8 27 15 NW 1021,0 0,0
14.01.2018 19:00:00 12,5 4,6 14 8 24 13 NW 1020,4 -
14.01.2018 18:00:00 12,5 5,0 15 8 28 15 NW 1020,3 0,0
14.01.2018 17:00:00 12,9 5,8 16 8 26 14 WNW 1020,1 0,0
14.01.2018 16:00:00 12,7 6,5 14 8 30 16 WNW 1019,9 0,0
14.01.2018 15:00:00 12,4 6,7 14 7 23 13 NW 1019,9 0,0
14.01.2018 14:00:00 11,9 7,4 13 7 20 11 NNW 1020,5 0,0
14.01.2018 13:00:00 11,4 8,4 9 5 12 6 NNW 1021,0 -
14.01.2018 12:00:00 11,3 9,6 1 0 7 4 ESE 1021,8 1,1
14.01.2018 11:00:00 11,1 9,3 2 1 6 4 S 1021,5 2,3
14.01.2018 10:00:00 10,6 8,9 3 2 16 9 SE 1021,2 1,7
14.01.2018 09:00:00 10,7 9,3 5 3 15 8 W 1021,2 0,7
14.01.2018 08:00:00 11,1 9,8 7 4 11 6 SE 1021,0 0,3
14.01.2018 07:00:00 10,5 9,3 4 2 12 7 SW 1021,1 -
14.01.2018 06:00:00 10,4 9,2 6 3 16 9 NNW 1021,3 0,5
14.01.2018 05:00:00 10,8 9,4 5 3 17 9 ESE 1021,5 0,0
14.01.2018 04:00:00 10,6 9,0 3 1 4 2 E 1022,0 0,0
14.01.2018 03:00:00 10,4 8,8 4 2 6 4 E 1022,4 0,0
14.01.2018 02:00:00 10,5 8,7 3 2 5 3 E 1022,8 0,0
14.01.2018 01:00:00 11,4 9,2 1 1 9 5 E 1023,4 -
14.01.2018 00:00:00 11,7 9,0 4 2 9 5 WNW 1023,6 0,0
13.01.2018 23:00:00 11,1 9,0 4 2 5 3 W 1023,6 0,0
13.01.2018 22:00:00 11,4 9,3 2 1 24 13 NNE 1023,4 1,2
13.01.2018 21:00:00 12,2 9,9 9 5 18 10 N 1023,1 0,0
13.01.2018 20:00:00 12,4 9,4 3 2 6 3 ESE 1022,7 0,0
13.01.2018 19:00:00 12,3 8,5 2 1 9 5 WNW 1022,6 -
13.01.2018 18:00:00 13,4 8,4 8 4 28 15 NW 1022,0 0,0
13.01.2018 17:00:00 13,7 8,8 19 10 34 19 NW 1021,6 0,0
13.01.2018 16:00:00 14,0 10,0 21 11 35 19 WNW 1020,9 0,0
13.01.2018 15:00:00 13,9 11,2 7 4 15 8 SSW 1020,1 0,1
13.01.2018 14:00:00 12,4 11,0 6 3 34 19 SSW 1020,7 5,2
13.01.2018 13:00:00 13,4 11,1 21 12 40 22 SSW 1021,6 -
13.01.2018 12:00:00 13,7 9,7 19 10 30 16 S 1021,9 0,0
13.01.2018 11:00:00 11,0 8,4 14 8 18 10 SSE 1022,3 0,0
13.01.2018 10:00:00 10,2 7,8 12 7 16 9 ESE 1021,4 0,0
13.01.2018 09:00:00 9,3 7,3 3 2 11 6 E 1022,0 0,0
13.01.2018 08:00:00 9,0 7,0 3 1 9 5 E 1021,3 0,0
13.01.2018 07:00:00 8,8 6,7 3 2 9 5 ENE 1021,4 -
13.01.2018 06:00:00 8,4 6,4 4 2 7 4 ENE 1021,2 0,0
13.01.2018 05:00:00 8,8 6,7 5 3 8 4 NNE 1021,4 0,0
13.01.2018 04:00:00 9,4 6,8 1 1 5 3 N 1021,8 0,0
13.01.2018 03:00:00 9,5 6,7 0 0 4 2 NNE 1022,1 0,0
13.01.2018 02:00:00 9,5 6,5 2 1 7 4 NNE 1022,5 0,0
13.01.2018 01:00:00 9,7 6,1 4 2 8 4 ENE 1023,0 -
13.01.2018 00:00:00 10,1 6,2 4 2 7 4 NE 1023,7 0,0
12.01.2018 23:00:00 10,6 6,5 5 3 8 4 NE 1023,7 0,0
12.01.2018 22:00:00 11,5 7,3 6 4 12 6 N 1024,1 0,0
12.01.2018 21:00:00 11,8 7,6 10 5 15 8 N 1024,6 0,0
12.01.2018 20:00:00 12,1 6,5 8 4 11 6 N 1024,6 0,0
12.01.2018 19:00:00 12,2 6,2 9 5 13 7 NNE 1024,1 -
12.01.2018 18:00:00 12,7 6,2 8 4 16 9 N 1024,6 0,0
12.01.2018 17:00:00 13,1 5,9 11 6 16 8 N 1024,5 0,0
12.01.2018 16:00:00 13,1 6,7 10 5 34 18 NW 1024,8 0,0
12.01.2018 15:00:00 13,1 6,8 8 5 12 6 NW 1025,1 0,0
12.01.2018 14:00:00 12,2 7,7 6 3 10 5 NNW 1025,7 0,0
12.01.2018 13:00:00 11,3 6,8 8 4 11 6 NNW 1026,7 -
12.01.2018 12:00:00 11,0 7,3 4 2 6 4 NNW 1027,4 0,0
12.01.2018 11:00:00 10,3 8,3 3 2 6 4 NE 1027,7 0,0
12.01.2018 10:00:00 9,8 8,4 4 2 6 4 NE 1027,2 0,0
12.01.2018 09:00:00 8,3 7,0 1 1 9 5 SW 1027,2 0,0
12.01.2018 08:00:00 8,5 7,0 6 3 9 5 N 1026,7 0,0
12.01.2018 07:00:00 8,6 6,7 5 3 9 5 NNE 1026,4 -
12.01.2018 06:00:00 8,9 6,8 4 2 11 6 ENE 1026,7 0,0
12.01.2018 05:00:00 9,5 7,1 8 4 13 7 NNE 1027,1 0,0
12.01.2018 04:00:00 10,4 7,7 7 4 15 8 NE 1027,4 0,0
12.01.2018 03:00:00 12,1 9,2 10 5 18 10 NNW 1027,7 0,0
12.01.2018 02:00:00 12,4 9,0 14 7 21 11 NNW 1028,2 0,0
12.01.2018 01:00:00 12,8 8,9 14 8 23 12 NW 1028,6 -
12.01.2018 00:00:00 13,2 8,7 14 7 24 13 NNW 1028,9 0,0
11.01.2018 23:00:00 14,0 8,4 16 9 25 14 NW 1029,0 0,0
11.01.2018 22:00:00 14,2 8,1 13 7 22 12 NW 1028,8 0,0
11.01.2018 21:00:00 14,4 8,8 13 7 24 13 WNW 1028,5 0,0
11.01.2018 20:00:00 14,3 8,5 12 7 23 12 WNW 1028,1 0,0
11.01.2018 19:00:00 14,3 8,0 13 7 23 12 WNW 1027,9 -
11.01.2018 18:00:00 14,5 8,0 13 7 26 14 WNW 1027,4 0,0
11.01.2018 17:00:00 15,1 8,1 16 8 26 14 WNW 1027,7 0,0
11.01.2018 16:00:00 15,0 7,8 20 11 31 17 WNW 1027,9 0,0
11.01.2018 15:00:00 14,8 7,6 18 10 29 16 WNW 1028,2 0,0
11.01.2018 14:00:00 14,6 7,6 16 9 32 18 NW 1028,7 0,0
11.01.2018 13:00:00 14,1 7,1 20 11 34 18 NW 1029,7 -
11.01.2018 12:00:00 13,8 7,6 16 9 28 15 NW 1030,4 0,0
11.01.2018 11:00:00 12,9 8,5 2 1 4 2 N 1030,3 0,0
11.01.2018 10:00:00 11,7 8,5 2 1 6 3 NE 1029,6 0,0
11.01.2018 09:00:00 11,2 8,1 5 3 12 6 NNE 1029,0 0,0
11.01.2018 08:00:00 11,7 7,8 8 4 16 8 NW 1028,8 0,0
11.01.2018 07:00:00 12,1 8,3 13 7 17 9 NNW 1028,7 -
11.01.2018 06:00:00 12,0 7,7 8 4 19 10 NW 1028,2 0,0
11.01.2018 05:00:00 12,5 8,0 16 9 23 13 NNW 1028,1 0,0
11.01.2018 04:00:00 12,6 7,4 16 9 27 14 NW 1028,5 0,0
11.01.2018 03:00:00 13,1 8,1 19 10 31 17 NW 1028,3 0,0
11.01.2018 02:00:00 13,4 8,3 19 10 29 16 NW 1028,1 0,0
11.01.2018 01:00:00 14,3 8,7 20 11 29 16 NW 1028,1 -
11.01.2018 00:00:00 14,5 9,3 17 9 27 14 NW 1028,2 0,0
10.01.2018 23:00:00 14,7 9,0 18 10 32 17 NW 1027,7 0,0
10.01.2018 22:00:00 14,4 11,9 10 5 33 18 WNW 1027,1 0,6
10.01.2018 21:00:00 16,0 12,2 16 9 34 18 WSW 1026,5 0,0
10.01.2018 20:00:00 16,1 11,9 18 10 37 20 W 1026,5 0,0
10.01.2018 19:00:00 15,9 11,9 17 9 31 17 WSW 1025,9 -
10.01.2018 18:00:00 16,1 12,2 13 7 25 13 WSW 1025,6 0,0
10.01.2018 17:00:00 16,9 12,6 14 8 25 13 WSW 1025,4 0,0
10.01.2018 16:00:00 17,2 12,5 12 6 29 16 W 1025,0 0,0
10.01.2018 15:00:00 16,6 12,5 13 7 22 12 W 1025,1 0,2
10.01.2018 14:00:00 17,0 13,4 8 5 16 8 WSW 1025,2 0,0
10.01.2018 13:00:00 15,5 12,1 5 3 9 5 S 1025,4 -
10.01.2018 12:00:00 14,6 11,9 4 2 8 4 SE 1025,9 0,0
10.01.2018 11:00:00 13,7 11,4 5 3 7 4 E 1025,8 0,0
10.01.2018 10:00:00 13,1 11,1 3 2 5 3 ENE 1025,0 0,0
10.01.2018 09:00:00 12,9 11,0 5 3 7 4 N 1024,3 0,0
10.01.2018 08:00:00 13,4 10,9 4 2 20 11 NNW 1023,6 0,0

tt = temperature
td = dewpoint
ff = wind speed
fx = gusts
dd = wind direction
ppp = reduced air pressure
rr = precipitation

Next stations